This is the latest recevied weather packets stored in our database for station/object WP4PW. If no packets are shown the sender has not sent any weather packets the latest 10 day(s).
| Time | Temp. | Humidity | Pressure | Rain* | Wind** | Luminosity | Snow |
|---|---|---|---|---|---|---|---|
| 1778080685 | 30.56° C | 78% | 1023.5 hPa | 0 mm | - | 786 W/m² | - |
| 1778080381 | 29.44° C | 80% | 1023.4 hPa | 0 mm | - | 785 W/m² | - |
| 1778080077 | 30° C | 79% | 1023.3 hPa | 0 mm | - | 775 W/m² | - |
| 1778079775 | 30° C | 79% | 1023.4 hPa | 0 mm | - | 770 W/m² | - |
| 1778079471 | 29.44° C | 79% | 1023.2 hPa | 0 mm | - | 764 W/m² | - |
| 1778079168 | 30° C | 77% | 1023.4 hPa | 0 mm | - | 755 W/m² | - |
| 1778078865 | 30.56° C | 79% | 1023.3 hPa | 0 mm | - | 744 W/m² | - |
| 1778078562 | 30° C | 79% | 1023.4 hPa | 0 mm | - | 691 W/m² | - |
| 1778078260 | 30° C | 75% | 1023.4 hPa | 0 mm | - | 720 W/m² | - |
| 1778077957 | 29.44° C | 78% | 1023.4 hPa | 0 mm | - | 716 W/m² | - |
| 1778077656 | 30° C | 74% | 1023.4 hPa | 0 mm | - | 701 W/m² | - |
| 1778077353 | 30° C | 75% | 1023.5 hPa | 0 mm | - | 693 W/m² | - |
| 1778077051 | 30° C | 76% | 1023.4 hPa | 0 mm | - | 681 W/m² | - |
| 1778076749 | 30° C | 75% | 1023.6 hPa | 0 mm | - | 670 W/m² | - |
| 1778076447 | 30° C | 76% | 1023.6 hPa | 0 mm | - | 657 W/m² | - |
| 1778076143 | 29.44° C | 78% | 1023.5 hPa | 0 mm | - | 644 W/m² | - |
| 1778075840 | 29.44° C | 78% | 1023.4 hPa | 0 mm | - | 633 W/m² | - |
| 1778075536 | 29.44° C | 77% | 1023.3 hPa | 0 mm | - | 621 W/m² | - |
| 1778075233 | 29.44° C | 77% | 1023.2 hPa | 0 mm | - | 610 W/m² | - |
| 1778074929 | 30° C | 76% | 1023.3 hPa | 0 mm | - | 596 W/m² | - |
| 1778074627 | 29.44° C | 79% | 1023.2 hPa | 0 mm | - | 586 W/m² | - |
| 1778074323 | 28.89° C | 79% | 1023.3 hPa | 0 mm | - | 567 W/m² | - |
| 1778074021 | 29.44° C | 79% | 1023.4 hPa | 0 mm | - | 548 W/m² | - |
| 1778073717 | 28.89° C | 80% | 1023.2 hPa | 0 mm | - | 534 W/m² | - |
| 1778073415 | 30° C | 77% | 1023.1 hPa | 0 mm | - | 524 W/m² | - |
* Rain latest hour (hover to see other rain measurements)
** Current wind speed in m/s (hover to see current wind gust speed)